Sitka, South Dakota
Current Conditions -  °F | °C
As of 10:52 PM on Saturday 20 Dec 2014 (Local Time) from KMBG Reporting Station
Clear Clear  
Wind Chill: 18°   Ceiling: Unl
Heat Index: 27°   Visibility: 10mi
Dew Point: 24°   Wind: 9mph
Humidity: 89%   Direction: 140°SE
Pressure: 29.8"   Gusts: NA
Location:  45.4184°N, 100.09°W
Report Text: KMBG 210452Z AUTO 14008KT 10SM CLR M03/M04 A2980 RMK AO2 SLP113 T10281044
Loading
Personal Weather Stations






























Interactive Weather Map New forecast layout! Learn more

10-Day Weather Forecast

Advertisements
Track Severe Weather on mobile